createdAt,value
2019-04-06T00:01:06.770Z,8.77
2019-04-06T00:03:38.023Z,7.97
2019-04-06T00:06:08.234Z,7.90
2019-04-06T00:08:38.838Z,9.23
2019-04-06T00:11:09.375Z,8.60
2019-04-06T00:13:39.787Z,8.03
2019-04-06T00:16:10.042Z,7.90
2019-04-06T00:18:40.569Z,8.57
2019-04-06T00:21:10.796Z,7.90
2019-04-06T00:23:41.400Z,7.87
2019-04-06T00:26:11.726Z,9.33
2019-04-06T00:28:42.018Z,8.37
2019-04-06T00:31:25.579Z,7.50
2019-04-06T00:33:55.776Z,8.43
2019-04-06T00:36:26.019Z,8.03
2019-04-06T00:38:56.675Z,8.10
2019-04-06T00:41:27.058Z,8.63
2019-04-06T00:43:58.749Z,8.33
2019-04-06T00:46:28.975Z,8.43
2019-04-06T00:48:59.602Z,8.70
2019-04-06T00:51:30.132Z,8.33
2019-04-06T00:54:00.383Z,8.20
2019-04-06T00:56:32.218Z,8.57
2019-04-06T00:59:02.529Z,9.80
2019-04-06T01:01:32.743Z,9.07
2019-04-06T01:04:03.406Z,8.43
2019-04-06T01:06:33.950Z,9.33
2019-04-06T01:09:05.787Z,8.23
2019-04-06T01:11:36.318Z,8.43
2019-04-06T01:14:06.538Z,9.23
2019-04-06T01:16:36.804Z,8.47
2019-04-06T01:19:07.087Z,8.30
2019-04-06T01:21:37.478Z,9.20
2019-04-06T01:24:08.047Z,8.70
2019-04-06T01:26:38.295Z,10.00
2019-04-06T01:29:08.594Z,9.27
2019-04-06T01:31:38.991Z,9.43
2019-04-06T01:34:09.188Z,9.20
2019-04-06T01:36:39.512Z,9.80
2019-04-06T01:39:09.825Z,8.63
2019-04-06T01:41:40.418Z,9.30
2019-04-06T01:44:10.626Z,8.53
2019-04-06T01:46:41.060Z,8.53
2019-04-06T01:49:12.705Z,8.43
2019-04-06T01:51:42.975Z,8.37
2019-04-06T01:54:13.255Z,9.63
2019-04-06T01:56:43.629Z,10.20
2019-04-06T01:59:13.923Z,9.00
2019-04-06T02:02:03.235Z,8.93
2019-04-06T02:04:33.722Z,8.93
2019-04-06T02:07:04.043Z,9.87
2019-04-06T02:09:34.252Z,10.13
2019-04-06T02:12:04.519Z,9.30
2019-04-06T02:14:34.815Z,10.77
2019-04-06T02:19:36.820Z,9.17
2019-04-06T02:22:07.218Z,10.30
2019-04-06T02:24:37.446Z,9.53
2019-04-06T02:27:07.638Z,9.23
2019-04-06T02:29:37.964Z,9.50
2019-04-06T02:32:36.509Z,9.93
2019-04-06T02:35:38.363Z,9.33
2019-04-06T02:38:43.205Z,8.85
2019-04-06T02:41:38.704Z,9.40
2019-04-06T02:44:09.155Z,10.20
2019-04-06T02:46:39.381Z,9.63
2019-04-06T02:49:09.610Z,9.93
2019-04-06T02:51:39.858Z,9.20
2019-04-06T02:54:10.097Z,8.63
2019-04-06T02:56:46.141Z,8.37
2019-04-06T02:59:12.587Z,9.17
2019-04-06T03:01:42.846Z,9.97
2019-04-06T03:04:13.765Z,10.13
2019-04-06T03:06:44.060Z,9.37
2019-04-06T03:09:14.292Z,8.83
2019-04-06T03:11:44.767Z,9.40
2019-04-06T03:14:16.092Z,9.15
2019-04-06T03:16:46.616Z,9.87
2019-04-06T03:19:16.811Z,8.40
2019-04-06T03:21:47.469Z,9.63
2019-04-06T03:24:17.797Z,9.50
2019-04-06T03:26:59.914Z,11.13
2019-04-06T03:29:20.035Z,10.50
2019-04-06T03:31:50.168Z,9.97
2019-04-06T03:34:21.983Z,9.90
2019-04-06T03:36:52.342Z,9.97
2019-04-06T03:39:23.011Z,9.73
2019-04-06T03:41:53.283Z,10.03
2019-04-06T03:44:23.554Z,9.27
2019-04-06T03:46:53.827Z,10.50
2019-04-06T03:49:24.187Z,9.33
2019-04-06T03:51:54.363Z,9.97
2019-04-06T03:54:24.654Z,10.47
2019-04-06T03:56:54.938Z,9.83
2019-04-06T03:59:25.648Z,10.67
2019-04-06T04:01:56.303Z,11.40
2019-04-06T04:04:26.574Z,9.57
2019-04-06T04:06:56.876Z,10.38
2019-04-06T04:09:27.450Z,7.90
2019-04-06T04:11:58.030Z,9.67
2019-04-06T04:14:28.248Z,9.30
2019-04-06T04:16:58.504Z,8.20
2019-04-06T04:19:28.970Z,8.90
2019-04-06T04:21:59.255Z,8.00
2019-04-06T04:24:29.506Z,7.67
2019-04-06T04:26:59.712Z,9.35
2019-04-06T04:29:29.879Z,8.07
2019-04-06T04:32:00.561Z,9.00
2019-04-06T04:34:31.397Z,8.80
2019-04-06T04:37:01.606Z,8.80
2019-04-06T04:39:32.003Z,9.00
2019-04-06T04:42:02.466Z,9.27
2019-04-06T04:44:33.108Z,9.33
2019-04-06T04:47:03.997Z,10.60
2019-04-06T04:49:34.517Z,8.87
2019-04-06T04:52:04.782Z,10.07
2019-04-06T04:54:35.060Z,9.33
2019-04-06T04:57:05.275Z,9.77
2019-04-06T04:59:36.073Z,10.90
2019-04-06T05:02:06.406Z,10.47
2019-04-06T05:04:36.659Z,10.80
2019-04-06T05:07:07.290Z,10.63
2019-04-06T05:09:38.402Z,11.67
2019-04-06T05:12:08.723Z,10.20
2019-04-06T05:15:18.602Z,11.00
2019-04-06T05:17:48.880Z,10.60
2019-04-06T05:20:19.193Z,10.27
2019-04-06T05:22:49.446Z,10.53
2019-04-06T05:25:19.719Z,11.33
2019-04-06T05:27:52.398Z,11.70
2019-04-06T05:30:21.889Z,10.10
2019-04-06T05:32:52.607Z,10.27
2019-04-06T05:35:22.856Z,10.03
2019-04-06T05:37:54.135Z,11.13
2019-04-06T05:40:25.568Z,10.73
2019-04-06T05:42:56.352Z,11.93
2019-04-06T05:45:26.511Z,11.03
2019-04-06T05:47:57.302Z,10.30
2019-04-06T05:50:27.466Z,10.60
2019-04-06T05:52:57.858Z,11.20
2019-04-06T05:55:28.485Z,11.80
2019-04-06T05:58:03.892Z,12.77
2019-04-06T06:00:31.350Z,11.40
2019-04-06T06:03:01.581Z,12.13
2019-04-06T06:05:31.982Z,13.20
2019-04-06T06:08:02.389Z,12.47
2019-04-06T06:10:32.641Z,13.03
2019-04-06T06:13:02.983Z,12.93
2019-04-06T06:15:34.214Z,11.40
2019-04-06T06:18:04.889Z,15.43
2019-04-06T06:20:35.663Z,12.37
2019-04-06T06:23:05.890Z,12.30
2019-04-06T06:25:36.377Z,12.07
2019-04-06T06:28:14.629Z,12.40
2019-04-06T06:30:38.785Z,12.43
2019-04-06T06:33:12.602Z,12.30
2019-04-06T06:35:42.965Z,15.27
2019-04-06T06:38:13.945Z,13.50
2019-04-06T06:40:45.040Z,15.90
2019-04-06T06:43:16.297Z,13.80
2019-04-06T06:45:46.502Z,10.50
2019-04-06T06:48:17.023Z,11.47
2019-04-06T06:50:47.838Z,11.93
2019-04-06T06:53:18.094Z,11.53
2019-04-06T06:55:49.589Z,11.87
2019-04-06T06:58:25.191Z,11.30
2019-04-06T07:00:52.977Z,10.77
2019-04-06T07:03:23.489Z,10.20
2019-04-06T07:05:54.340Z,11.47
2019-04-06T07:08:25.148Z,9.90
2019-04-06T07:10:55.373Z,9.97
2019-04-06T07:13:25.559Z,10.50
2019-04-06T07:15:56.588Z,9.45
2019-04-06T07:18:28.026Z,10.68
2019-04-06T07:20:59.574Z,9.90
2019-04-06T07:23:30.822Z,9.80
2019-04-06T07:26:01.459Z,10.17
2019-04-06T07:28:38.623Z,9.43
2019-04-06T07:31:04.644Z,9.07
2019-04-06T07:33:35.220Z,9.70
2019-04-06T07:36:05.537Z,10.43
2019-04-06T07:38:37.835Z,10.20
2019-04-06T07:41:09.068Z,9.63
2019-04-06T07:43:40.574Z,9.47
2019-04-06T07:46:11.055Z,9.10
2019-04-06T07:48:41.314Z,8.47
2019-04-06T07:51:12.637Z,11.03
2019-04-06T07:53:43.160Z,8.73
2019-04-06T07:56:13.734Z,9.70
2019-04-06T07:58:49.530Z,10.50
2019-04-06T08:01:16.352Z,9.90
2019-04-06T08:03:46.900Z,9.17
2019-04-06T08:06:17.253Z,9.87
2019-04-06T08:08:48.462Z,11.00
2019-04-06T08:11:19.161Z,9.73
2019-04-06T08:13:49.758Z,10.83
2019-04-06T08:16:20.127Z,9.43
2019-04-06T08:18:50.678Z,8.83
2019-04-06T08:21:20.890Z,10.18
2019-04-06T08:23:51.539Z,10.03
2019-04-06T08:26:22.124Z,9.60
2019-04-06T08:29:00.299Z,11.17
2019-04-06T08:31:24.318Z,9.97
2019-04-06T08:33:54.986Z,11.07
2019-04-06T08:36:25.904Z,9.80
2019-04-06T08:38:56.691Z,11.10
2019-04-06T08:41:27.436Z,9.07
2019-04-06T08:43:58.018Z,10.80
2019-04-06T08:46:28.220Z,10.57
2019-04-06T08:48:58.435Z,9.27
2019-04-06T08:51:29.138Z,9.33
2019-04-06T08:53:59.854Z,11.00
2019-04-06T08:56:31.149Z,13.43
2019-04-06T08:59:10.738Z,9.23
2019-04-06T09:01:34.072Z,8.87
2019-04-06T09:04:04.621Z,8.43
2019-04-06T09:06:34.906Z,9.33
2019-04-06T09:09:07.429Z,7.97
2019-04-06T09:11:37.706Z,9.97
2019-04-06T09:14:09.178Z,12.73
2019-04-06T09:16:40.179Z,9.57
2019-04-06T09:19:11.146Z,10.28
2019-04-06T09:21:41.361Z,9.30
2019-04-06T09:24:11.585Z,9.47
2019-04-06T09:26:41.795Z,9.07
2019-04-06T09:29:22.414Z,9.03
2019-04-06T09:31:44.841Z,9.57
2019-04-06T09:34:15.511Z,11.03
2019-04-06T09:36:47.560Z,9.50
2019-04-06T09:39:19.157Z,12.07
2019-04-06T09:41:50.446Z,9.80
2019-04-06T09:44:32.138Z,11.03
2019-04-06T09:47:16.883Z,9.07
2019-04-06T09:50:18.787Z,9.33
2019-04-06T09:53:05.254Z,9.30
2019-04-06T09:55:54.631Z,8.47
2019-04-06T09:58:37.907Z,12.73
2019-04-06T10:01:19.774Z,8.78
2019-04-06T10:03:59.171Z,9.10
2019-04-06T10:06:48.704Z,8.75
2019-04-06T10:09:38.362Z,8.18
2019-04-06T10:12:26.275Z,9.65
2019-04-06T10:15:24.894Z,8.70
2019-04-06T10:18:13.517Z,9.38
2019-04-06T10:20:52.947Z,8.53
2019-04-06T10:23:36.512Z,9.78
2019-04-06T10:26:26.342Z,8.63
2019-04-06T10:29:18.740Z,7.45
2019-04-06T10:32:12.343Z,9.45
2019-04-06T10:35:07.679Z,7.20
2019-04-06T10:38:06.860Z,8.68
2019-04-06T10:40:54.339Z,7.45
2019-04-06T10:43:55.798Z,8.75
2019-04-06T10:46:35.603Z,9.50
2019-04-06T10:49:13.832Z,8.20
2019-04-06T10:52:01.994Z,8.30
2019-04-06T10:55:04.283Z,9.33
2019-04-06T10:57:51.020Z,9.45
2019-04-06T11:00:39.026Z,8.67
2019-04-06T11:03:31.167Z,9.78
2019-04-06T11:06:26.255Z,8.85
2019-04-06T11:09:12.672Z,9.38
2019-04-06T11:12:05.471Z,8.13
2019-04-06T11:14:55.782Z,10.28
2019-04-06T11:18:00.742Z,8.75
2019-04-06T11:20:44.886Z,8.83
2019-04-06T11:23:32.350Z,9.03
2019-04-06T11:26:20.354Z,11.10
2019-04-06T11:29:02.713Z,9.83
2019-04-06T11:31:47.174Z,6.90
2019-04-06T11:34:35.469Z,8.03
2019-04-06T11:37:37.048Z,10.13
2019-04-06T11:40:16.549Z,9.10
2019-04-06T11:43:08.798Z,6.80
2019-04-06T11:46:07.521Z,9.48
2019-04-06T11:48:59.906Z,9.63
2019-04-06T11:51:49.842Z,8.43
2019-04-06T11:54:42.190Z,8.18
2019-04-06T11:57:27.096Z,11.05
2019-04-06T12:00:26.082Z,8.45
2019-04-06T12:03:24.507Z,8.98
2019-04-06T12:06:10.258Z,8.68
2019-04-06T12:08:53.705Z,33.30
2019-04-06T12:11:37.498Z,13.88
2019-04-06T12:14:38.657Z,8.67
2019-04-06T12:17:19.131Z,8.03
2019-04-06T12:20:07.197Z,9.03
2019-04-06T12:22:59.349Z,7.42
2019-04-06T12:25:46.612Z,11.50
2019-04-06T12:28:26.568Z,9.08
2019-04-06T12:31:14.624Z,9.60
2019-04-06T12:34:10.021Z,10.58
2019-04-06T12:37:09.219Z,8.03
2019-04-06T12:39:54.608Z,7.75
2019-04-06T12:42:35.053Z,13.27
2019-04-06T12:45:30.749Z,9.45
2019-04-06T12:48:38.719Z,9.83
2019-04-06T12:51:25.738Z,14.68
2019-04-06T12:54:13.874Z,7.83
2019-04-06T12:57:06.408Z,8.80
2019-04-06T13:00:05.121Z,13.18
2019-04-06T13:02:53.014Z,11.83
2019-04-06T13:05:39.089Z,9.55
2019-04-06T13:08:41.003Z,6.75
2019-04-06T13:11:21.791Z,8.93
2019-04-06T13:14:04.586Z,8.45
2019-04-06T13:16:43.529Z,9.00
2019-04-06T13:19:42.376Z,8.43
2019-04-06T13:22:27.348Z,8.70
2019-04-06T13:25:14.333Z,11.12
2019-04-06T13:28:09.654Z,9.35
2019-04-06T13:31:13.985Z,8.93
2019-04-06T13:34:08.299Z,15.03
2019-04-06T13:36:48.740Z,8.55
2019-04-06T13:39:43.704Z,8.20
2019-04-06T13:42:36.176Z,7.22
2019-04-06T13:45:40.461Z,6.97
2019-04-06T13:48:32.338Z,8.20
2019-04-06T13:51:21.732Z,8.03
2019-04-06T13:54:17.763Z,8.18
2019-04-06T13:57:06.963Z,9.23
2019-04-06T13:59:54.448Z,10.43
2019-04-06T14:02:33.709Z,8.58
2019-04-06T14:05:26.049Z,8.73
2019-04-06T14:08:13.227Z,7.90
2019-04-06T14:10:52.222Z,9.00
2019-04-06T14:13:41.026Z,10.30
2019-04-06T14:16:19.950Z,8.28
2019-04-06T14:19:18.574Z,10.50
2019-04-06T14:22:02.043Z,8.95
2019-04-06T14:25:00.421Z,11.20
2019-04-06T14:27:51.439Z,9.13
2019-04-06T14:30:37.578Z,7.60
2019-04-06T14:33:25.895Z,8.85
2019-04-06T14:36:24.465Z,8.13
2019-04-06T14:39:02.359Z,7.97
2019-04-06T14:41:54.070Z,8.18
2019-04-06T14:44:43.235Z,8.20
2019-04-06T14:47:41.734Z,7.78
2019-04-06T14:50:31.706Z,9.90
2019-04-06T14:53:15.213Z,8.10
2019-04-06T14:56:00.387Z,6.65
2019-04-06T14:58:55.801Z,7.92
2019-04-06T15:01:57.734Z,6.70
2019-04-06T15:04:36.815Z,6.62
2019-04-06T15:07:31.762Z,6.22
2019-04-06T15:10:19.771Z,7.20
2019-04-06T15:13:15.326Z,6.58
2019-04-06T15:16:20.135Z,5.92
2019-04-06T15:19:09.396Z,6.28
2019-04-06T15:21:59.542Z,7.20
2019-04-06T15:24:48.726Z,6.00
2019-04-06T15:27:37.954Z,7.08
2019-04-06T15:30:25.890Z,6.85
2019-04-06T15:33:18.823Z,6.78
2019-04-06T15:36:06.994Z,7.28
2019-04-06T15:38:53.418Z,8.80
2019-04-06T15:41:54.757Z,7.15
2019-04-06T15:44:36.144Z,7.42
2019-04-06T15:47:25.775Z,7.30
2019-04-06T15:50:15.001Z,7.42
2019-04-06T15:53:12.906Z,6.90
2019-04-06T15:56:14.202Z,6.17
2019-04-06T15:58:54.571Z,8.98
2019-04-06T16:01:59.088Z,7.15
2019-04-06T16:04:44.612Z,6.90
2019-04-06T16:07:29.715Z,6.90
2019-04-06T16:10:18.145Z,5.65
2019-04-06T16:13:19.740Z,8.53
2019-04-06T16:16:07.618Z,7.45
2019-04-06T16:19:01.438Z,8.05
2019-04-06T16:21:49.902Z,6.70
2019-04-06T16:24:51.304Z,7.25
2019-04-06T16:27:33.661Z,6.70
2019-04-06T16:30:25.844Z,6.30
2019-04-06T16:33:14.479Z,7.55
2019-04-06T16:36:20.641Z,11.63
2019-04-06T16:39:10.488Z,8.30
2019-04-06T16:42:05.971Z,9.47
2019-04-06T16:44:58.710Z,8.08
2019-04-06T16:47:48.195Z,9.25
2019-04-06T16:50:36.477Z,8.13
2019-04-06T16:53:34.554Z,9.95
2019-04-06T16:56:19.400Z,9.80
2019-04-06T16:59:09.002Z,10.05
2019-04-06T17:02:22.986Z,10.72
2019-04-06T17:05:16.565Z,10.30
2019-04-06T17:07:52.493Z,10.70
2019-04-06T17:10:35.812Z,10.53
2019-04-06T17:13:22.798Z,10.85
2019-04-06T17:16:04.419Z,11.10
2019-04-06T17:18:52.304Z,10.20
2019-04-06T17:21:41.048Z,13.00
2019-04-06T17:24:21.254Z,10.67
2019-04-06T17:27:03.686Z,11.17
2019-04-06T17:30:06.397Z,12.83
2019-04-06T17:32:50.322Z,15.13
2019-04-06T17:35:39.351Z,16.40
2019-04-06T17:38:21.800Z,15.77
2019-04-06T17:41:04.788Z,14.67
2019-04-06T17:44:00.381Z,14.20
2019-04-06T17:46:52.702Z,14.63
2019-04-06T17:49:57.467Z,15.97
2019-04-06T17:52:46.837Z,15.50
2019-04-06T17:55:24.730Z,15.47
2019-04-06T17:58:07.199Z,15.90
2019-04-06T18:00:51.690Z,16.23
2019-04-06T18:03:47.005Z,15.33
2019-04-06T18:06:39.395Z,14.33
2019-04-06T18:09:35.107Z,14.83
2019-04-06T18:12:17.443Z,14.33
2019-04-06T18:14:48.794Z,12.97
2019-04-06T18:17:19.279Z,13.80
2019-04-06T18:19:49.610Z,15.00
2019-04-06T18:22:20.352Z,15.70
2019-04-06T18:24:51.532Z,13.33
2019-04-06T18:27:21.947Z,12.83
2019-04-06T18:29:52.513Z,14.17
2019-04-06T18:32:36.230Z,18.53
2019-04-06T18:35:07.543Z,15.60
2019-04-06T18:37:45.896Z,16.93
2019-04-06T18:40:41.590Z,18.30
2019-04-06T18:43:13.036Z,15.87
2019-04-06T18:45:43.354Z,18.33
2019-04-06T18:48:13.779Z,17.30
2019-04-06T18:50:44.749Z,15.97
2019-04-06T18:53:15.426Z,16.50
2019-04-06T18:55:46.011Z,18.87
2019-04-06T18:58:16.683Z,25.27
2019-04-06T19:00:47.054Z,18.97
2019-04-06T19:03:17.658Z,15.50
2019-04-06T19:05:49.831Z,16.27
2019-04-06T19:08:19.947Z,15.70
2019-04-06T19:10:50.176Z,18.30
2019-04-06T19:13:20.655Z,18.87
2019-04-06T19:15:50.925Z,16.00
2019-04-06T19:18:21.387Z,16.50
2019-04-06T19:20:52.715Z,16.00
2019-04-06T19:23:23.116Z,16.77
2019-04-06T19:25:53.384Z,17.20
2019-04-06T19:28:24.794Z,18.37
2019-04-06T19:30:55.316Z,18.43
2019-04-06T19:33:26.447Z,20.70
2019-04-06T19:35:58.568Z,18.43
2019-04-06T19:38:28.954Z,18.73
2019-04-06T19:40:59.705Z,17.90
2019-04-06T19:43:31.053Z,17.50
2019-04-06T19:46:01.499Z,18.73
2019-04-06T19:48:33.096Z,18.67
2019-04-06T19:51:03.494Z,19.13
2019-04-06T19:53:33.752Z,19.70
2019-04-06T19:56:04.280Z,19.47
2019-04-06T19:58:35.161Z,19.10
2019-04-06T20:01:05.658Z,22.57
2019-04-06T20:03:39.001Z,20.33
2019-04-06T20:06:08.282Z,23.33
2019-04-06T20:08:39.480Z,22.07
2019-04-06T20:11:11.015Z,20.43
2019-04-06T20:13:41.256Z,19.47
2019-04-06T20:16:12.079Z,23.93
2019-04-06T20:18:43.425Z,21.70
2019-04-06T20:21:14.270Z,22.87
2019-04-06T20:23:44.747Z,20.43
2019-04-06T20:26:14.989Z,21.83
2019-04-06T20:28:45.655Z,23.07
2019-04-06T20:31:16.028Z,22.27
2019-04-06T20:33:51.397Z,19.27
2019-04-06T20:36:18.561Z,18.00
2019-04-06T20:38:49.106Z,18.37
2019-04-06T20:41:19.387Z,18.30
2019-04-06T20:43:49.653Z,18.32
2019-04-06T20:46:20.692Z,21.27
2019-04-06T20:48:51.181Z,21.97
2019-04-06T20:51:21.494Z,18.57
2019-04-06T20:53:52.058Z,21.37
2019-04-06T20:56:22.250Z,19.97
2019-04-06T20:58:52.603Z,19.20
2019-04-06T21:01:23.306Z,19.50
2019-04-06T21:04:00.837Z,20.23
2019-04-06T21:06:25.695Z,18.83
2019-04-06T21:08:56.699Z,20.10
2019-04-06T21:11:29.012Z,23.40
2019-04-06T21:14:00.025Z,18.80
2019-04-06T21:16:30.879Z,21.93
2019-04-06T21:19:01.213Z,19.00
2019-04-06T21:21:31.515Z,21.27
2019-04-06T21:24:01.702Z,19.53
2019-04-06T21:26:32.487Z,20.07
2019-04-06T21:29:03.845Z,20.13
2019-04-06T21:31:34.182Z,21.70
2019-04-06T21:34:12.048Z,20.97
2019-04-06T21:36:36.814Z,20.20
2019-04-06T21:39:08.211Z,19.90
2019-04-06T21:41:38.528Z,19.70
2019-04-06T21:44:08.707Z,19.40
2019-04-06T21:46:40.401Z,19.90
2019-04-06T21:49:11.182Z,22.53
2019-04-06T21:51:41.599Z,22.77
2019-04-06T21:54:11.802Z,24.20
2019-04-06T21:56:42.435Z,22.37
2019-04-06T21:59:15.292Z,23.40
2019-04-06T22:01:45.630Z,21.67
2019-04-06T22:04:23.598Z,22.53
2019-04-06T22:06:48.191Z,21.40
2019-04-06T22:09:19.694Z,21.13
2019-04-06T22:11:51.853Z,20.20
2019-04-06T22:14:22.768Z,20.43
2019-04-06T22:16:52.973Z,21.47
2019-04-06T22:19:23.654Z,23.47
2019-04-06T22:21:54.585Z,20.70
2019-04-06T22:24:25.191Z,21.37
2019-04-06T22:26:56.233Z,23.77
2019-04-06T22:29:27.495Z,22.43
2019-04-06T22:31:58.762Z,20.87
2019-04-06T22:34:36.448Z,19.30
2019-04-06T22:37:01.038Z,20.70
2019-04-06T22:39:31.714Z,18.83
2019-04-06T22:42:02.113Z,20.70
2019-04-06T22:44:33.735Z,17.90
2019-04-06T22:47:05.131Z,17.23
2019-04-06T22:49:35.732Z,20.90
2019-04-06T22:52:06.136Z,21.17
2019-04-06T22:54:37.281Z,19.50
2019-04-06T22:57:08.016Z,20.07
2019-04-06T22:59:39.196Z,21.87
2019-04-06T23:02:09.545Z,22.77
2019-04-06T23:04:51.194Z,20.30
2019-04-06T23:07:23.313Z,19.27
2019-04-06T23:09:54.203Z,18.83
2019-04-06T23:12:24.663Z,17.73
2019-04-06T23:14:55.499Z,17.37
2019-04-06T23:17:26.112Z,17.63
2019-04-06T23:19:56.340Z,16.60
2019-04-06T23:22:27.428Z,17.27
2019-04-06T23:24:58.026Z,17.50
2019-04-06T23:27:28.341Z,16.73
2019-04-06T23:29:58.821Z,18.77
2019-04-06T23:32:29.612Z,17.80
2019-04-06T23:35:01.971Z,14.33
2019-04-06T23:37:33.370Z,15.73
2019-04-06T23:40:06.634Z,19.57
2019-04-06T23:42:37.612Z,22.47
2019-04-06T23:45:08.182Z,17.10
2019-04-06T23:47:38.801Z,18.17
2019-04-06T23:50:08.969Z,17.83
2019-04-06T23:52:39.727Z,16.90
2019-04-06T23:55:10.689Z,17.20
2019-04-06T23:57:41.611Z,17.97
